Ever Ursula — 3FCB9 — position and weather

sailwx.info

Track history (hours):
 
Tides and Currents Weather Stations Pressure Air Temp Water Temp Dewpoint Dewpoint Depression Visibility Wind Speed Wind Dir Waves Ship Positions

Ever Ursula

Last reported at 2017-Feb-16 14:24 UTC. Time now 2017-Feb-20 18:33 UTC.
Position N 23°45' E 118°35'.

Type: Ship (hazmat cat D). MMSI: 357737000.

Date/timePositionNaut miles runAvg speedWind from/ knotsBaromVisibWave heightAir tempDewpointWater temp
2017-Feb-16 14:24N 23°45' E 118°35'1518.1
2017-Feb-16 13:33N 23°54' E 118°49'1817.8
2017-Feb-16 12:33N 24°05' E 119°04'  
2017-Feb-10 06:15N 38°45' E 122°07'1115.4
2017-Feb-10 05:33N 38°52' E 121°56'4 0.2
2017-Feb-09 10:34N 38°56' E 121°57'1110.8
2017-Feb-09 09:34N 38°45' E 121°52'1413.8
2017-Feb-09 08:33N 38°33' E 121°45'1413.7
2017-Feb-09 07:33N 38°28' E 121°29'1616.1
2017-Feb-09 06:33N 38°28' E 121°08'1313.5
2017-Feb-09 05:34N 38°34' E 120°52'1211.6
2017-Feb-09 04:34N 38°35' E 120°38'1716.6
2017-Feb-09 03:33N 38°38' E 120°17'8 0.2
2017-Feb-07 09:33N 38°39' E 120°26'1514.6
2017-Feb-07 08:33N 38°37' E 120°45'1312.8
2017-Feb-07 07:33N 38°33' E 121°00'1313.3
2017-Feb-07 06:33N 38°27' E 121°15'1817.3
2017-Feb-07 05:32N 38°18' E 121°35'  
Track history (hours):
 
Tides and Currents Weather Stations Pressure Air Temp Water Temp Dewpoint Dewpoint Depression Visibility Wind Speed Wind Dir Waves Ship Positions

Ever Ursula

Last reported at 2017-Feb-16 14:24 UTC. Time now 2017-Feb-20 18:33 UTC.
Position N 23°45' E 118°35'.

Type: Ship (hazmat cat D). MMSI: 357737000.

Date/timePositionNaut miles runAvg speedWind from/ knotsBaromVisibWave heightAir tempDewpointWater temp
2017-Feb-16 14:24N 23°45' E 118°35'1518.1
2017-Feb-16 13:33N 23°54' E 118°49'1817.8
2017-Feb-16 12:33N 24°05' E 119°04'  
2017-Feb-10 06:15N 38°45' E 122°07'1115.4
2017-Feb-10 05:33N 38°52' E 121°56'4 0.2
2017-Feb-09 10:34N 38°56' E 121°57'1110.8
2017-Feb-09 09:34N 38°45' E 121°52'1413.8
2017-Feb-09 08:33N 38°33' E 121°45'1413.7
2017-Feb-09 07:33N 38°28' E 121°29'1616.1
2017-Feb-09 06:33N 38°28' E 121°08'1313.5
2017-Feb-09 05:34N 38°34' E 120°52'1211.6
2017-Feb-09 04:34N 38°35' E 120°38'1716.6
2017-Feb-09 03:33N 38°38' E 120°17'8 0.2
2017-Feb-07 09:33N 38°39' E 120°26'1514.6
2017-Feb-07 08:33N 38°37' E 120°45'1312.8
2017-Feb-07 07:33N 38°33' E 121°00'1313.3
2017-Feb-07 06:33N 38°27' E 121°15'1817.3
2017-Feb-07 05:32N 38°18' E 121°35'  

Dump ship's entire track history